Time;durP1;ratioP1;P1;durP2;ratioP2;P2;SDS_P1;SDS_P2;PMS_P1;PMS_P2;Temp;Humidity;BMP_temperature;BMP_pressure;BME280_temperature;BME280_humidity;BME280_pressure;Samples;Min_cycle;Max_cycle;Signal;HPM_P1;HPM_P2
2022/12/08 00:00:49;;;;;;;27.95;15.85;;;0.60;99.90;;;;;;5071280;28;20421;-81
2022/12/08 00:03:14;;;;;;;26.85;15.43;;;0.60;99.90;;;;;;5072674;28;20462;-81
2022/12/08 00:11:18;;;;;;;27.02;14.80;;;0.60;99.90;;;;;;5072774;28;20162;-81
2022/12/08 00:13:44;;;;;;;35.63;16.45;;;0.60;99.90;;;;;;5072587;28;20028;-81
2022/12/08 00:16:09;;;;;;;29.73;14.57;;;0.50;99.90;;;;;;5072316;28;20514;-81
2022/12/08 00:18:35;;;;;;;28.83;16.17;;;0.50;99.90;;;;;;5072438;28;20024;-81
2022/12/08 00:21:02;;;;;;;31.13;15.35;;;0.50;99.90;;;;;;5073029;28;20486;-81
2022/12/08 00:23:27;;;;;;;27.33;15.00;;;0.50;99.90;;;;;;5074565;28;20024;-81
2022/12/08 00:25:53;;;;;;;29.15;14.55;;;0.60;99.90;;;;;;5074492;28;20119;-81
2022/12/08 00:28:18;;;;;;;32.90;15.38;;;0.50;99.90;;;;;;5074654;28;20478;-81
2022/12/08 00:30:44;;;;;;;31.75;17.00;;;0.50;99.90;;;;;;5074583;28;20086;-80
2022/12/08 00:33:10;;;;;;;28.02;14.88;;;0.60;99.90;;;;;;5066402;28;20025;-81
2022/12/08 00:35:35;;;;;;;29.05;14.70;;;0.60;99.90;;;;;;5054451;28;20071;-81
2022/12/08 00:38:01;;;;;;;30.95;16.02;;;0.60;99.90;;;;;;5054427;28;20021;-81
2022/12/08 00:40:27;;;;;;;26.33;15.52;;;0.60;99.90;;;;;;5055720;28;20382;-81
2022/12/08 00:42:52;;;;;;;31.17;16.35;;;0.60;99.90;;;;;;5055489;28;20364;-81
2022/12/08 00:45:18;;;;;;;26.95;15.70;;;0.60;99.90;;;;;;5073516;28;20125;-81
2022/12/08 00:47:44;;;;;;;29.30;16.27;;;0.70;99.90;;;;;;5074284;28;20021;-81
2022/12/08 00:50:10;;;;;;;30.50;16.15;;;0.60;99.90;;;;;;5055720;28;20014;-81
2022/12/08 00:52:36;;;;;;;30.05;15.50;;;0.70;99.90;;;;;;5054160;28;20021;-81
2022/12/08 00:55:03;;;;;;;30.50;15.40;;;0.70;99.90;;;;;;5068957;28;20020;-80
2022/12/08 00:57:28;;;;;;;24.73;14.68;;;0.70;99.90;;;;;;5075287;28;20020;-81
2022/12/08 00:59:54;;;;;;;28.95;15.73;;;0.70;99.90;;;;;;5074157;28;20036;-81
2022/12/08 01:02:19;;;;;;;31.58;16.73;;;0.70;99.90;;;;;;5075505;28;20052;-81
2022/12/08 01:04:45;;;;;;;26.00;14.98;;;0.70;99.90;;;;;;5073918;28;20047;-81
2022/12/08 01:07:11;;;;;;;28.35;16.23;;;0.70;99.90;;;;;;5075165;28;20182;-81
2022/12/08 01:09:36;;;;;;;27.35;14.70;;;0.70;99.90;;;;;;5073983;28;20047;-81
2022/12/08 01:12:02;;;;;;;30.02;16.05;;;0.70;99.90;;;;;;5075101;28;20048;-81
2022/12/08 01:14:28;;;;;;;27.88;16.58;;;0.70;99.90;;;;;;5075179;28;20029;-81
2022/12/08 01:16:53;;;;;;;30.52;16.60;;;0.70;99.90;;;;;;5073686;28;20024;-81
2022/12/08 01:19:19;;;;;;;28.55;16.90;;;0.70;99.90;;;;;;5073799;28;20021;-81
2022/12/08 01:21:45;;;;;;;31.75;16.25;;;0.70;99.90;;;;;;5074785;28;20056;-81
2022/12/08 01:24:13;;;;;;;29.10;16.63;;;0.70;99.90;;;;;;5075001;28;20470;-80
2022/12/08 01:26:40;;;;;;;32.95;16.75;;;0.70;99.90;;;;;;5074705;28;20116;-81
2022/12/08 01:29:06;;;;;;;24.92;14.90;;;0.70;99.90;;;;;;5074895;28;20036;-81
2022/12/08 01:31:31;;;;;;;29.40;16.67;;;0.70;99.90;;;;;;5074095;28;20021;-80
2022/12/08 01:33:57;;;;;;;30.83;16.45;;;0.70;99.90;;;;;;5055896;28;20043;-81
2022/12/08 01:36:28;;;;;;;25.77;15.32;;;0.70;99.90;;;;;;5053464;28;20094;-80
2022/12/08 01:38:57;;;;;;;28.52;15.48;;;0.70;99.90;;;;;;5053281;28;20024;-81
2022/12/08 01:41:26;;;;;;;27.08;15.10;;;0.70;99.90;;;;;;5054690;28;20082;-81
2022/12/08 01:44:02;;;;;;;33.40;17.02;;;0.70;99.90;;;;;;5054275;28;20067;-81
2022/12/08 01:46:30;;;;;;;28.35;15.68;;;0.70;99.90;;;;;;5053127;28;20124;-81
2022/12/08 01:49:01;;;;;;;27.58;16.10;;;0.60;99.90;;;;;;5053016;28;20105;-81
2022/12/08 01:51:29;;;;;;;32.72;16.50;;;0.60;99.90;;;;;;5053175;28;20131;-81
2022/12/08 01:53:55;;;;;;;31.67;16.35;;;0.60;99.90;;;;;;5058527;28;20108;-81
2022/12/08 01:56:31;;;;;;;32.65;15.65;;;0.60;99.90;;;;;;5074316;28;20044;-82
2022/12/08 01:58:57;;;;;;;29.10;14.77;;;0.60;99.90;;;;;;5072902;28;20111;-81
2022/12/08 02:01:23;;;;;;;34.72;18.10;;;0.60;99.90;;;;;;5072853;28;20124;-82
2022/12/08 02:04:00;;;;;;;31.83;16.38;;;0.60;99.90;;;;;;5072672;28;20032;-82
2022/12/08 02:06:30;;;;;;;41.38;18.42;;;0.60;99.90;;;;;;5072732;28;20116;-82
2022/12/08 02:08:58;;;;;;;29.05;15.98;;;0.60;99.90;;;;;;5073988;28;20024;-81
2022/12/08 02:11:23;;;;;;;32.35;15.15;;;0.60;99.90;;;;;;5074021;28;20462;-81
2022/12/08 02:13:51;;;;;;;34.67;15.95;;;0.60;99.90;;;;;;5072394;28;20050;-81
2022/12/08 02:16:35;;;;;;;26.90;15.43;;;0.60;99.90;;;;;;5072551;28;20021;-82
2022/12/08 02:19:39;;;;;;;24.83;15.55;;;0.60;99.90;;;;;;5073887;28;20078;-82
2022/12/08 02:22:22;;;;;;;26.88;14.00;;;0.60;99.90;;;;;;5058520;28;20039;-82
2022/12/08 02:25:01;;;;;;;26.35;14.60;;;0.60;99.90;;;;;;5053735;28;20445;-81
2022/12/08 02:27:53;;;;;;;31.08;15.73;;;0.70;99.90;;;;;;5052295;28;20441;-81
2022/12/08 02:30:22;;;;;;;35.90;15.57;;;0.70;99.90;;;;;;5052503;28;20379;-81
2022/12/08 02:33:03;;;;;;;30.10;15.07;;;0.60;99.90;;;;;;5052210;28;20079;-81
2022/12/08 02:35:43;;;;;;;33.30;16.02;;;0.60;99.90;;;;;;5052382;28;20547;-82
2022/12/08 02:38:28;;;;;;;29.52;15.38;;;0.70;99.90;;;;;;5052274;28;20116;-81
2022/12/08 02:41:24;;;;;;;29.98;15.18;;;0.70;99.90;;;;;;5052266;28;20025;-82
2022/12/08 02:44:18;;;;;;;29.10;13.93;;;0.70;99.90;;;;;;5051940;28;20074;-82
2022/12/08 02:46:51;;;;;;;29.83;15.32;;;0.70;99.90;;;;;;5051563;28;20052;-82
2022/12/08 02:49:16;;;;;;;28.27;14.23;;;0.60;99.90;;;;;;5051827;28;20025;-82
2022/12/08 02:51:42;;;;;;;27.65;16.08;;;0.70;99.90;;;;;;5053415;28;20471;-82
2022/12/08 02:54:08;;;;;;;26.08;14.23;;;0.70;99.90;;;;;;5051834;28;20033;-82
2022/12/08 02:56:45;;;;;;;27.20;15.10;;;0.60;99.90;;;;;;5051850;28;20025;-81
2022/12/08 02:59:51;;;;;;;26.92;13.95;;;0.60;99.90;;;;;;5053398;28;20374;-81
2022/12/08 03:02:43;;;;;;;28.77;14.68;;;0.60;99.90;;;;;;5031348;28;20029;-81
2022/12/08 03:05:58;;;;;;;25.88;14.55;;;0.70;99.90;;;;;;5041096;28;20120;-82
2022/12/08 03:08:41;;;;;;;25.90;13.45;;;0.70;99.90;;;;;;5051709;28;20375;-82
2022/12/08 03:11:19;;;;;;;25.75;13.13;;;0.70;99.90;;;;;;5053169;28;20024;-81
2022/12/08 03:13:48;;;;;;;30.85;13.73;;;0.60;99.90;;;;;;5051676;28;20095;-81
2022/12/08 03:16:21;;;;;;;25.45;15.23;;;0.60;99.90;;;;;;5051739;28;20017;-82
2022/12/08 03:18:51;;;;;;;25.48;13.57;;;0.60;99.90;;;;;;5052959;28;20025;-81
2022/12/08 03:21:19;;;;;;;33.85;15.15;;;0.60;99.90;;;;;;5051791;28;20092;-82
2022/12/08 03:23:49;;;;;;;24.52;12.88;;;0.70;99.90;;;;;;5051635;28;20032;-82
2022/12/08 03:26:22;;;;;;;25.83;13.95;;;0.60;99.90;;;;;;5051696;28;20124;-81
2022/12/08 03:28:48;;;;;;;24.80;11.93;;;0.70;99.90;;;;;;5051530;28;20057;-82
2022/12/08 03:31:16;;;;;;;23.63;13.55;;;0.60;99.90;;;;;;5051708;28;20060;-82
2022/12/08 03:33:48;;;;;;;29.00;13.82;;;0.70;99.90;;;;;;5052769;28;20024;-81
2022/12/08 03:36:15;;;;;;;23.90;12.63;;;0.70;99.90;;;;;;5051668;28;20075;-81
2022/12/08 03:38:43;;;;;;;30.83;15.55;;;0.70;99.90;;;;;;5051369;28;20167;-81
2022/12/08 03:41:18;;;;;;;30.58;16.02;;;0.70;99.90;;;;;;5052537;28;20082;-82
2022/12/08 03:43:50;;;;;;;29.50;16.35;;;0.70;99.90;;;;;;5052605;28;20432;-81
2022/12/08 03:46:18;;;;;;;21.92;13.52;;;0.70;99.90;;;;;;5052673;28;20040;-81
2022/12/08 03:48:44;;;;;;;29.42;15.63;;;0.70;99.90;;;;;;5052519;28;20021;-81
2022/12/08 03:51:09;;;;;;;30.50;15.27;;;0.70;99.90;;;;;;5051442;28;20032;-81
2022/12/08 03:53:35;;;;;;;30.23;14.63;;;0.70;99.90;;;;;;5056321;28;20097;-81
2022/12/08 03:56:04;;;;;;;30.52;16.08;;;0.70;99.90;;;;;;5073605;28;20422;-81
2022/12/08 03:58:30;;;;;;;25.42;14.55;;;0.70;99.90;;;;;;5061670;28;20063;-81
2022/12/08 04:00:56;;;;;;;22.52;13.48;;;0.70;99.90;;;;;;5056422;28;20441;-81
2022/12/08 04:03:21;;;;;;;28.02;15.07;;;0.70;99.90;;;;;;5054905;28;20032;-81
2022/12/08 04:05:47;;;;;;;32.15;15.90;;;0.60;99.90;;;;;;5054911;28;20509;-81
2022/12/08 04:08:12;;;;;;;25.95;15.20;;;0.60;99.90;;;;;;5055162;28;20021;-81
2022/12/08 04:10:38;;;;;;;28.45;15.05;;;0.60;99.90;;;;;;5056215;28;20025;-81
2022/12/08 04:13:04;;;;;;;29.73;16.33;;;0.60;99.90;;;;;;5055027;28;20037;-81
2022/12/08 04:15:29;;;;;;;28.13;15.45;;;0.60;99.90;;;;;;5054655;28;20032;-81
2022/12/08 04:17:55;;;;;;;27.67;16.10;;;0.60;99.90;;;;;;5055005;28;20024;-81
2022/12/08 04:20:21;;;;;;;26.65;15.50;;;0.60;99.90;;;;;;5056127;28;20029;-81
2022/12/08 04:22:46;;;;;;;24.45;13.45;;;0.60;99.90;;;;;;5056071;28;20104;-81
2022/12/08 04:25:12;;;;;;;26.98;13.40;;;0.60;99.90;;;;;;5054507;28;20025;-82
2022/12/08 04:27:37;;;;;;;29.80;15.27;;;0.50;99.90;;;;;;5075116;28;20397;-82
2022/12/08 04:30:03;;;;;;;30.65;16.63;;;0.50;99.90;;;;;;5074593;28;20033;-82
2022/12/08 04:32:29;;;;;;;32.17;17.70;;;0.50;99.90;;;;;;5074573;28;20027;-81
2022/12/08 04:34:54;;;;;;;23.70;13.70;;;0.50;99.90;;;;;;5075848;28;20024;-82
2022/12/08 04:37:20;;;;;;;25.55;13.73;;;0.50;99.90;;;;;;5075880;28;20105;-82
2022/12/08 04:39:45;;;;;;;25.20;15.70;;;0.50;99.90;;;;;;5074424;28;20032;-82
2022/12/08 04:42:11;;;;;;;29.85;16.23;;;0.50;99.90;;;;;;5074582;28;20429;-81
2022/12/08 04:44:36;;;;;;;28.92;15.15;;;0.40;99.90;;;;;;5073982;28;20512;-81
2022/12/08 04:47:02;;;;;;;27.60;13.95;;;0.40;99.90;;;;;;5075602;28;20044;-81
2022/12/08 04:49:28;;;;;;;29.55;16.90;;;0.40;99.90;;;;;;5060159;28;20029;-82
2022/12/08 04:51:53;;;;;;;21.15;13.52;;;0.40;99.90;;;;;;5054373;28;20021;-82
2022/12/08 04:54:19;;;;;;;26.88;15.75;;;0.40;99.90;;;;;;5064405;28;20103;-82
2022/12/08 04:56:44;;;;;;;34.20;17.50;;;0.40;99.90;;;;;;5075303;28;20032;-82
2022/12/08 04:59:10;;;;;;;33.63;16.60;;;0.40;99.90;;;;;;5074239;28;20024;-82
2022/12/08 05:01:36;;;;;;;29.77;15.27;;;0.30;99.90;;;;;;5074266;28;20099;-82
2022/12/08 05:04:01;;;;;;;27.63;15.30;;;0.40;99.90;;;;;;5074105;28;20029;-81
2022/12/08 05:06:27;;;;;;;26.73;15.30;;;0.30;99.90;;;;;;5073028;28;20401;-82
2022/12/08 05:08:53;;;;;;;30.40;16.13;;;0.30;99.90;;;;;;5073674;28;20020;-82
2022/12/08 05:11:18;;;;;;;31.02;15.70;;;0.30;99.90;;;;;;5073848;28;20024;-81
2022/12/08 05:13:44;;;;;;;30.33;16.60;;;0.20;99.90;;;;;;5071998;28;20060;-81
2022/12/08 05:16:14;;;;;;;30.55;15.75;;;0.20;99.90;;;;;;5053715;28;20021;-82
2022/12/08 05:18:41;;;;;;;29.80;14.30;;;0.20;99.90;;;;;;5042650;28;20100;-81
2022/12/08 05:21:07;;;;;;;29.48;15.10;;;0.10;99.90;;;;;;5034945;28;20025;-82
2022/12/08 05:23:33;;;;;;;31.95;17.13;;;0.10;99.90;;;;;;5033773;28;20075;-81
2022/12/08 05:26:00;;;;;;;26.35;14.55;;;0.20;99.90;;;;;;5033520;28;20041;-82
2022/12/08 05:28:25;;;;;;;27.08;14.85;;;0.10;99.90;;;;;;5033646;28;20022;-82
2022/12/08 05:30:51;;;;;;;24.35;13.63;;;0.10;99.90;;;;;;5034728;28;20045;-82
2022/12/08 05:33:17;;;;;;;33.45;16.05;;;0.10;99.90;;;;;;5034914;28;20022;-82
2022/12/08 05:35:43;;;;;;;33.78;15.75;;;0.10;99.90;;;;;;5059252;28;20047;-82
2022/12/08 05:38:09;;;;;;;33.75;16.63;;;0.00;99.90;;;;;;5074822;28;20017;-82
2022/12/08 05:40:37;;;;;;;26.63;15.13;;;0.00;99.90;;;;;;5073359;28;20020;-82
2022/12/08 05:43:03;;;;;;;34.15;17.08;;;0.00;99.90;;;;;;5073316;28;20025;-82
2022/12/08 05:45:28;;;;;;;49.97;22.17;;;0.00;99.90;;;;;;5074127;28;20410;-82
2022/12/08 05:47:54;;;;;;;39.65;20.17;;;0.00;99.90;;;;;;5070503;28;21579;-82
2022/12/08 05:50:19;;;;;;;31.85;17.50;;;0.00;99.90;;;;;;5053065;28;20453;-82
2022/12/08 05:52:45;;;;;;;28.42;16.02;;;0.00;99.90;;;;;;5053201;28;20025;-82
2022/12/08 05:55:11;;;;;;;32.20;18.15;;;0.00;99.90;;;;;;5070564;28;20591;-82
2022/12/08 05:57:36;;;;;;;36.72;18.02;;;0.00;99.90;;;;;;5072790;28;20012;-82
2022/12/08 06:00:03;;;;;;;42.95;20.70;;;0.00;99.90;;;;;;5074259;28;20029;-82
2022/12/08 06:02:28;;;;;;;39.22;20.73;;;0.00;99.90;;;;;;5032597;28;20021;-81
2022/12/08 06:04:54;;;;;;;44.10;22.38;;;-0.10;99.90;;;;;;5070863;28;20105;-82
2022/12/08 06:07:19;;;;;;;46.75;23.73;;;-0.10;99.90;;;;;;5053532;28;20040;-81
2022/12/08 06:09:45;;;;;;;43.78;21.00;;;-0.10;99.90;;;;;;5047801;28;20049;-82
2022/12/08 06:12:11;;;;;;;44.95;23.23;;;-0.10;99.90;;;;;;5041022;28;20072;-82
2022/12/08 06:14:39;;;;;;;46.55;23.13;;;-0.20;99.90;;;;;;5041880;28;20029;-81
2022/12/08 06:17:05;;;;;;;40.13;20.92;;;-0.10;99.90;;;;;;5041321;28;20032;-81
2022/12/08 06:19:31;;;;;;;41.42;21.58;;;-0.20;99.90;;;;;;5040187;28;20495;-82
2022/12/08 06:21:57;;;;;;;38.30;22.45;;;-0.20;99.90;;;;;;5036636;28;20021;-82
2022/12/08 06:24:22;;;;;;;42.03;20.05;;;-0.20;99.90;;;;;;5037524;28;20029;-81
2022/12/08 06:26:48;;;;;;;44.72;22.88;;;-0.20;99.90;;;;;;5040650;28;20448;-81
2022/12/08 06:29:14;;;;;;;39.53;21.75;;;-0.20;99.90;;;;;;5041421;28;20394;-82
2022/12/08 06:31:39;;;;;;;46.30;25.02;;;-0.20;99.90;;;;;;5034698;28;20024;-81
2022/12/08 06:34:05;;;;;;;42.85;21.63;;;-0.20;99.90;;;;;;5032460;28;20388;-83
2022/12/08 06:36:31;;;;;;;44.97;22.98;;;-0.20;99.90;;;;;;5037747;28;20029;-82
2022/12/08 06:38:57;;;;;;;45.55;22.55;;;-0.20;99.90;;;;;;5042675;28;20032;-83
2022/12/08 06:41:23;;;;;;;39.33;21.42;;;-0.20;99.90;;;;;;5041036;28;20475;-82
2022/12/08 06:43:49;;;;;;;43.72;21.92;;;-0.20;99.90;;;;;;5040863;28;20758;-82
2022/12/08 06:46:16;;;;;;;57.70;26.05;;;-0.20;99.90;;;;;;5031941;28;20040;-83
2022/12/08 06:48:42;;;;;;;47.67;23.17;;;-0.20;99.90;;;;;;5042739;28;20021;-81
2022/12/08 06:51:10;;;;;;;52.58;25.60;;;-0.20;99.90;;;;;;5045702;28;20036;-82
2022/12/08 06:53:37;;;;;;;53.50;25.02;;;-0.30;99.90;;;;;;5042787;28;20044;-82
2022/12/08 06:56:03;;;;;;;68.00;29.58;;;-0.30;99.90;;;;;;5042876;28;20060;-81
2022/12/08 06:58:29;;;;;;;72.05;32.55;;;-0.30;99.90;;;;;;5041448;28;20022;-83
2022/12/08 07:00:54;;;;;;;74.35;31.27;;;-0.20;99.90;;;;;;5038477;28;20230;-81
2022/12/08 07:03:20;;;;;;;82.25;35.42;;;-0.20;99.90;;;;;;5033426;28;20017;-82
2022/12/08 07:05:46;;;;;;;79.68;35.53;;;-0.20;99.90;;;;;;5040249;28;20037;-83
2022/12/08 07:08:11;;;;;;;79.05;34.40;;;-0.20;99.90;;;;;;5031904;28;20022;-82
2022/12/08 07:10:38;;;;;;;93.07;39.63;;;-0.10;99.90;;;;;;5038321;28;20021;-82
2022/12/08 07:13:03;;;;;;;77.30;34.55;;;-0.10;99.90;;;;;;5043313;28;20036;-81
2022/12/08 07:15:29;;;;;;;68.38;35.08;;;-0.10;99.90;;;;;;5045564;28;20025;-81
2022/12/08 07:17:54;;;;;;;72.82;34.95;;;-0.10;99.90;;;;;;5041322;28;20021;-81
2022/12/08 07:20:20;;;;;;;64.18;31.75;;;0.00;99.90;;;;;;5039938;28;20025;-81
2022/12/08 07:22:52;;;;;;;51.50;25.52;;;0.00;99.90;;;;;;5039925;28;20386;-81
2022/12/08 07:25:19;;;;;;;52.88;26.77;;;0.00;99.90;;;;;;5041208;28;20028;-82
2022/12/08 07:27:45;;;;;;;56.78;26.88;;;0.00;99.90;;;;;;5041921;28;20017;-81
2022/12/08 07:30:11;;;;;;;53.67;26.17;;;0.10;99.90;;;;;;5043006;28;20036;-81
2022/12/08 07:32:38;;;;;;;56.65;29.70;;;0.10;99.90;;;;;;5047092;28;20104;-82
2022/12/08 07:35:05;;;;;;;99.28;47.20;;;0.10;99.90;;;;;;5042552;28;20082;-83
2022/12/08 07:37:33;;;;;;;98.25;42.03;;;0.10;99.90;;;;;;5047238;28;20055;-82
2022/12/08 07:39:59;;;;;;;93.93;41.45;;;0.10;99.90;;;;;;5054839;28;20024;-81
2022/12/08 07:42:24;;;;;;;98.20;43.33;;;0.20;99.90;;;;;;5055147;28;20525;-82
2022/12/08 07:44:50;;;;;;;87.50;36.20;;;0.20;99.90;;;;;;5055987;28;20056;-82
2022/12/08 07:47:16;;;;;;;79.53;34.72;;;0.30;99.90;;;;;;5055818;28;20052;-80
2022/12/08 07:49:41;;;;;;;57.88;30.35;;;0.30;99.90;;;;;;5054607;28;20032;-81
2022/12/08 07:52:07;;;;;;;58.60;29.08;;;0.40;99.90;;;;;;5056139;28;20017;-81
2022/12/08 07:54:32;;;;;;;54.13;29.17;;;0.40;99.90;;;;;;5055845;28;20024;-80
2022/12/08 07:56:58;;;;;;;49.60;28.25;;;0.50;99.90;;;;;;5055578;28;20360;-80
2022/12/08 07:59:23;;;;;;;50.45;26.10;;;0.50;99.90;;;;;;5056225;28;20052;-83
2022/12/08 08:01:50;;;;;;;45.95;25.90;;;0.60;99.90;;;;;;5044409;28;20080;-81
2022/12/08 08:04:15;;;;;;;48.35;26.52;;;0.60;99.90;;;;;;5042415;28;20040;-83
2022/12/08 08:06:41;;;;;;;50.15;26.67;;;0.60;99.90;;;;;;5058060;28;20037;-82
2022/12/08 08:09:08;;;;;;;44.20;23.73;;;0.60;99.90;;;;;;5054670;28;20395;-81
2022/12/08 08:11:34;;;;;;;47.42;24.55;;;0.60;99.90;;;;;;5054540;28;20036;-81
2022/12/08 08:14:00;;;;;;;46.95;25.33;;;0.60;99.90;;;;;;5055074;28;20029;-81
2022/12/08 08:16:25;;;;;;;46.45;24.38;;;0.60;99.90;;;;;;5052990;28;20033;-82
2022/12/08 08:18:51;;;;;;;51.20;25.40;;;0.60;99.90;;;;;;5055804;28;20382;-82
2022/12/08 08:21:18;;;;;;;52.20;27.45;;;0.70;99.90;;;;;;5056283;28;20032;-82
2022/12/08 08:23:44;;;;;;;48.35;25.00;;;0.80;99.90;;;;;;5054466;28;20032;-82
2022/12/08 08:26:09;;;;;;;44.75;22.30;;;0.90;99.90;;;;;;5053439;28;20478;-81
2022/12/08 08:28:35;;;;;;;33.20;18.50;;;1.00;99.90;;;;;;5053882;28;20021;-82
2022/12/08 08:31:01;;;;;;;30.13;15.90;;;1.10;99.90;;;;;;5052489;28;20717;-81
2022/12/08 08:33:26;;;;;;;29.55;17.58;;;1.20;99.90;;;;;;5050990;28;20025;-81
2022/12/08 08:35:53;;;;;;;29.63;17.33;;;1.20;99.90;;;;;;5049619;28;20028;-81
2022/12/08 08:38:19;;;;;;;24.85;15.10;;;1.20;99.90;;;;;;5049565;28;20032;-81
2022/12/08 08:40:44;;;;;;;26.15;14.32;;;1.20;99.90;;;;;;5051130;28;20095;-80
2022/12/08 08:43:27;;;;;;;30.20;17.63;;;1.20;99.90;;;;;;5051032;28;20036;-81
2022/12/08 08:45:57;;;;;;;29.52;15.13;;;1.20;99.90;;;;;;5053154;28;20486;-81
2022/12/08 08:48:23;;;;;;;26.80;14.05;;;1.20;99.90;;;;;;5055461;28;20029;-81
2022/12/08 08:50:48;;;;;;;25.67;13.15;;;1.20;99.90;;;;;;5055440;28;20035;-82
2022/12/08 08:53:14;;;;;;;38.53;19.40;;;1.20;99.90;;;;;;5056633;28;20025;-82
2022/12/08 08:55:40;;;;;;;95.63;42.70;;;1.20;99.90;;;;;;5074284;28;20120;-82
2022/12/08 08:58:05;;;;;;;52.92;26.08;;;1.20;99.90;;;;;;5075506;28;20110;-82
2022/12/08 09:00:31;;;;;;;27.42;14.82;;;1.20;99.90;;;;;;5075434;28;20099;-81
2022/12/08 09:02:56;;;;;;;26.33;14.57;;;1.30;99.90;;;;;;5075501;28;20028;-82
2022/12/08 09:05:22;;;;;;;25.50;13.68;;;1.30;99.90;;;;;;5074690;28;20028;-81
2022/12/08 09:07:47;;;;;;;22.42;13.35;;;1.40;99.90;;;;;;5074063;28;20398;-81
2022/12/08 09:10:13;;;;;;;27.38;14.82;;;1.40;99.90;;;;;;5075132;28;20016;-81
2022/12/08 09:12:39;;;;;;;25.08;14.80;;;1.40;99.90;;;;;;5073920;28;20024;-82
2022/12/08 09:15:05;;;;;;;23.02;13.55;;;1.40;99.90;;;;;;5075108;28;20029;-81
2022/12/08 09:17:30;;;;;;;36.80;18.73;;;1.50;99.90;;;;;;5073764;28;20082;-81
2022/12/08 09:19:56;;;;;;;29.27;15.43;;;1.50;99.90;;;;;;5073786;28;20020;-82
2022/12/08 09:22:22;;;;;;;25.55;14.63;;;1.50;99.90;;;;;;5075057;28;20438;-81
2022/12/08 09:24:48;;;;;;;30.08;15.95;;;1.60;99.90;;;;;;5073461;28;20032;-81
2022/12/08 09:27:13;;;;;;;28.02;15.98;;;1.60;99.90;;;;;;5074878;28;20047;-81
2022/12/08 09:29:39;;;;;;;26.77;15.70;;;1.60;99.90;;;;;;5074700;28;20107;-82
2022/12/08 09:32:05;;;;;;;26.83;14.27;;;1.60;99.90;;;;;;5074908;28;20123;-81
2022/12/08 09:34:30;;;;;;;29.52;15.02;;;1.60;99.90;;;;;;5073341;28;20024;-81
2022/12/08 09:36:56;;;;;;;45.65;22.75;;;1.70;99.90;;;;;;5073478;28;20031;-82
2022/12/08 09:39:22;;;;;;;66.50;31.83;;;1.70;99.90;;;;;;5073260;28;20020;-82
2022/12/08 09:41:49;;;;;;;55.05;28.67;;;1.80;99.90;;;;;;5074626;28;20021;-82
2022/12/08 09:44:34;;;;;;;35.13;17.63;;;1.70;99.90;;;;;;5074194;28;20043;-82
2022/12/08 09:47:02;;;;;;;30.88;17.15;;;1.80;99.90;;;;;;5073184;28;20067;-81
2022/12/08 09:49:40;;;;;;;29.00;17.08;;;1.80;99.90;;;;;;5056140;28;20119;-82
2022/12/08 09:52:22;;;;;;;40.72;23.83;;;1.80;99.90;;;;;;5054583;28;20058;-82
2022/12/08 09:54:48;;;;;;;47.28;23.23;;;1.90;99.90;;;;;;5068323;28;20020;-81
2022/12/08 09:57:18;;;;;;;37.92;19.73;;;1.90;99.90;;;;;;5074182;28;20028;-81
2022/12/08 09:59:50;;;;;;;50.55;32.10;;;2.00;99.90;;;;;;5072774;28;20119;-81
2022/12/08 10:02:22;;;;;;;43.17;26.07;;;2.10;99.90;;;;;;5073099;28;20082;-81
2022/12/08 10:04:47;;;;;;;34.30;19.05;;;2.10;99.90;;;;;;5074112;28;20021;-81
2022/12/08 10:07:19;;;;;;;33.17;17.42;;;2.20;99.90;;;;;;5072893;28;20504;-80
2022/12/08 10:09:55;;;;;;;48.00;20.90;;;2.20;99.90;;;;;;5072754;28;20135;-80
2022/12/08 10:12:49;;;;;;;50.53;21.77;;;2.30;99.90;;;;;;5072857;28;20053;-81
2022/12/08 10:15:43;;;;;;;45.10;22.02;;;2.40;99.90;;;;;;5074038;28;20024;-81
2022/12/08 10:18:21;;;;;;;;;;;2.50;99.90;;;;;;5073093;28;20081;-81
2022/12/08 10:20:49;;;;;;;44.22;20.63;;;2.60;99.90;;;;;;5072144;28;19915;-81
2022/12/08 10:23:24;;;;;;;34.40;17.30;;;2.60;99.90;;;;;;5072626;28;20025;-81
2022/12/08 10:25:59;;;;;;;34.53;17.00;;;2.70;99.90;;;;;;5073697;28;20032;-81
2022/12/08 10:28:24;;;;;;;22.60;12.43;;;2.70;99.90;;;;;;5072547;28;20020;-81
2022/12/08 10:30:50;;;;;;;22.35;11.85;;;2.70;99.90;;;;;;5072379;28;20024;-81
2022/12/08 10:33:18;;;;;;;19.42;10.23;;;2.70;99.90;;;;;;5072417;28;20127;-81
2022/12/08 10:35:57;;;;;;;16.88;10.25;;;2.70;99.90;;;;;;5072189;28;20028;-80
2022/12/08 10:38:30;;;;;;;22.17;10.35;;;2.80;99.90;;;;;;5073764;28;20500;-81
2022/12/08 10:41:10;;;;;;;18.73;11.40;;;2.80;99.90;;;;;;5073098;28;20020;-81
2022/12/08 10:43:59;;;;;;;17.52;10.02;;;2.90;99.90;;;;;;5073449;28;20020;-81
2022/12/08 10:46:27;;;;;;;20.02;10.23;;;2.90;99.90;;;;;;5073234;28;20482;-81
2022/12/08 10:49:10;;;;;;;16.98;9.10;;;3.00;99.90;;;;;;5059984;28;20041;-80
2022/12/08 10:51:41;;;;;;;18.15;10.05;;;3.00;99.90;;;;;;5052076;28;20143;-82
2022/12/08 10:54:31;;;;;;;17.40;9.55;;;3.00;99.90;;;;;;5062528;28;20020;-80
2022/12/08 10:56:57;;;;;;;15.57;10.20;;;3.00;99.90;;;;;;5073340;28;20378;-82
2022/12/08 10:59:26;;;;;;;14.23;9.40;;;3.00;99.90;;;;;;5071972;28;20036;-80
2022/12/08 11:01:54;;;;;;;14.55;8.98;;;3.00;99.90;;;;;;5071924;28;20027;-80
2022/12/08 11:04:22;;;;;;;13.68;8.30;;;3.00;99.90;;;;;;5071397;28;20017;-80
2022/12/08 11:06:49;;;;;;;16.05;8.95;;;3.00;99.90;;;;;;5071462;28;20086;-81
2022/12/08 11:09:15;;;;;;;16.65;9.32;;;2.90;99.90;;;;;;5073112;28;20097;-80
2022/12/08 11:11:52;;;;;;;15.80;8.90;;;3.00;99.90;;;;;;5071859;28;20024;-81
2022/12/08 11:14:23;;;;;;;13.93;8.80;;;2.90;99.90;;;;;;5071946;28;20027;-81
2022/12/08 11:16:52;;;;;;;14.43;8.18;;;3.00;99.90;;;;;;5073090;28;20041;-80
2022/12/08 11:19:19;;;;;;;16.42;8.48;;;3.00;99.90;;;;;;5053846;28;20029;-80
2022/12/08 11:21:46;;;;;;;12.68;8.38;;;3.00;99.90;;;;;;5061906;28;20029;-80
2022/12/08 11:24:19;;;;;;;15.18;8.70;;;3.00;99.90;;;;;;5068921;28;20063;-82
2022/12/08 11:26:58;;;;;;;15.98;8.60;;;3.00;99.90;;;;;;5068308;28;20392;-82
2022/12/08 11:29:25;;;;;;;15.25;8.57;;;3.00;99.90;;;;;;5068409;28;20485;-82
2022/12/08 11:32:01;;;;;;;17.33;9.68;;;3.00;99.90;;;;;;5072799;28;20116;-81
2022/12/08 11:34:37;;;;;;;13.77;8.95;;;3.00;99.90;;;;;;5071630;28;20029;-82
2022/12/08 11:37:07;;;;;;;21.52;10.70;;;3.00;99.90;;;;;;5072771;28;20024;-81
2022/12/08 11:39:38;;;;;;;15.30;9.65;;;3.00;99.90;;;;;;5071406;28;20097;-79
2022/12/08 11:42:07;;;;;;;14.30;9.65;;;3.00;99.90;;;;;;5071629;28;20024;-80
2022/12/08 11:44:51;;;;;;;14.02;9.77;;;3.00;99.90;;;;;;5071425;28;20041;-80
2022/12/08 11:47:35;;;;;;;14.95;9.00;;;3.00;99.90;;;;;;5071428;28;20041;-82
2022/12/08 11:50:21;;;;;;;16.38;9.10;;;3.10;99.90;;;;;;5042228;28;20017;-79
2022/12/08 11:52:49;;;;;;;15.27;8.23;;;3.10;99.90;;;;;;5041889;28;20116;-82
2022/12/08 11:55:24;;;;;;;17.67;8.82;;;3.20;99.90;;;;;;5043250;28;20033;-82
2022/12/08 11:57:50;;;;;;;14.88;7.97;;;3.20;99.90;;;;;;5041761;28;20060;-82
2022/12/08 12:00:17;;;;;;;12.93;7.53;;;3.20;99.90;;;;;;5042067;28;20018;-82
2022/12/08 12:02:53;;;;;;;14.23;8.68;;;3.30;99.90;;;;;;5033758;28;20025;-82
2022/12/08 12:05:47;;;;;;;13.60;8.18;;;3.20;99.90;;;;;;5031342;28;20379;-79
2022/12/08 12:08:36;;;;;;;17.23;7.85;;;3.30;99.90;;;;;;5031327;28;20088;-79
2022/12/08 12:14:51;;;;;;;12.13;7.60;;;3.40;99.90;;;;;;5041925;28;20087;-82
2022/12/08 12:17:35;;;;;;;11.88;7.90;;;3.40;99.90;;;;;;5043243;28;20433;-82
2022/12/08 12:20:10;;;;;;;17.70;7.70;;;3.30;99.90;;;;;;5045145;28;20025;-82
2022/12/08 12:22:37;;;;;;;14.15;8.45;;;3.30;99.90;;;;;;5044264;28;20025;-79
2022/12/08 12:25:03;;;;;;;11.25;6.70;;;3.20;99.90;;;;;;5044001;28;20025;-79
2022/12/08 12:27:38;;;;;;;12.63;7.22;;;3.20;99.90;;;;;;5042079;28;20044;-79
2022/12/08 12:30:08;;;;;;;12.15;6.68;;;3.10;99.90;;;;;;5042598;28;20467;-79
2022/12/08 12:32:50;;;;;;;13.48;6.70;;;3.00;99.90;;;;;;5047960;28;20021;-79
2022/12/08 12:35:25;;;;;;;11.88;7.05;;;3.00;99.90;;;;;;5044338;28;20055;-79
2022/12/08 12:37:50;;;;;;;11.73;6.57;;;3.00;99.90;;;;;;5038523;28;20028;-82
2022/12/08 12:40:26;;;;;;;12.50;6.30;;;2.90;99.90;;;;;;5042912;28;20029;-78
2022/12/08 12:42:55;;;;;;;11.50;6.50;;;2.90;99.90;;;;;;5044517;28;20041;-79
2022/12/08 12:45:20;;;;;;;12.65;6.63;;;2.80;99.90;;;;;;5044645;28;20117;-79
2022/12/08 12:47:55;;;;;;;11.48;7.53;;;2.80;99.90;;;;;;5044255;28;20107;-79
2022/12/08 12:50:32;;;;;;;10.60;6.18;;;2.80;99.90;;;;;;5043424;28;20029;-79
2022/12/08 12:52:59;;;;;;;10.70;6.35;;;2.80;99.90;;;;;;5047112;28;20107;-81
2022/12/08 12:55:27;;;;;;;12.35;6.40;;;2.70;99.90;;;;;;5046664;28;21679;-78
2022/12/08 12:57:56;;;;;;;15.63;7.40;;;2.70;99.90;;;;;;5043864;28;20021;-81